Time;durP1;ratioP1;P1;durP2;ratioP2;P2;SDS_P1;SDS_P2;PMS_P1;PMS_P2;Temp;Humidity;BMP_temperature;BMP_pressure;BME280_temperature;BME280_humidity;BME280_pressure;Samples;Min_cycle;Max_cycle;Signal;HPM_P1;HPM_P2
2023/10/04 00:01:12;;;;;;;2.67;0.80;;;;;;;;;;5005798;28;20475;-70
2023/10/04 00:03:39;;;;;;;2.83;1.00;;;;;;;;;;5002323;28;20463;-70
2023/10/04 00:06:09;;;;;;;5.43;0.90;;;;;;;;;;5004956;28;20455;-70
2023/10/04 00:08:39;;;;;;;2.20;1.00;;;;;;;;;;5001081;28;20469;-70
2023/10/04 00:11:06;;;;;;;2.77;0.97;;;;;;;;;;5015709;28;20847;-70
2023/10/04 00:13:34;;;;;;;3.43;1.00;;;;;;;;;;5003924;28;20481;-70
2023/10/04 00:16:02;;;;;;;2.30;0.80;;;;;;;;;;5005872;28;20437;-69
2023/10/04 00:18:29;;;;;;;2.70;1.00;;;;;;;;;;5002413;28;20538;-69
2023/10/04 00:20:57;;;;;;;3.07;1.00;;;;;;;;;;5002689;28;20440;-70
2023/10/04 00:23:26;;;;;;;23.07;1.33;;;;;;;;;;5009141;28;20955;-68
2023/10/04 00:25:53;;;;;;;3.37;0.90;;;;;;;;;;5002522;28;20445;-68
2023/10/04 00:28:21;;;;;;;2.60;0.90;;;;;;;;;;5018180;28;20463;-70
2023/10/04 00:30:48;;;;;;;2.20;0.70;;;;;;;;;;5001487;28;20479;-68
2023/10/04 00:33:16;;;;;;;2.20;0.90;;;;;;;;;;5015205;28;20976;-69
2023/10/04 00:35:43;;;;;;;2.07;0.63;;;;;;;;;;4997514;28;20445;-69
2023/10/04 00:38:14;;;;;;;3.07;0.97;;;;;;;;;;5006722;28;20444;-69
2023/10/04 00:40:43;;;;;;;4.10;0.90;;;;;;;;;;5008987;28;20440;-69
2023/10/04 00:43:19;;;;;;;2.73;0.70;;;;;;;;;;5004916;28;20512;-70
2023/10/04 00:45:48;;;;;;;5.17;0.93;;;;;;;;;;5008960;28;20448;-70
2023/10/04 00:48:18;;;;;;;2.53;1.00;;;;;;;;;;5005752;28;20443;-70
2023/10/04 00:50:47;;;;;;;2.70;0.90;;;;;;;;;;5001117;28;20487;-70
2023/10/04 00:53:15;;;;;;;5.23;1.90;;;;;;;;;;5012384;28;20448;-69
2023/10/04 00:55:45;;;;;;;2.80;0.90;;;;;;;;;;4998759;28;20515;-69
2023/10/04 00:58:17;;;;;;;4.80;1.30;;;;;;;;;;5008591;28;20527;-70
2023/10/04 01:00:45;;;;;;;3.13;0.87;;;;;;;;;;5002590;28;20902;-69
2023/10/04 01:03:20;;;;;;;3.50;1.20;;;;;;;;;;5002367;28;20875;-69
2023/10/04 01:05:48;;;;;;;2.53;1.20;;;;;;;;;;4996867;28;20825;-69
2023/10/04 01:08:16;;;;;;;2.37;1.07;;;;;;;;;;5010256;28;20450;-69
2023/10/04 01:10:47;;;;;;;2.50;1.00;;;;;;;;;;5009442;28;20467;-69
2023/10/04 01:13:16;;;;;;;2.27;0.60;;;;;;;;;;5012000;28;20449;-69
2023/10/04 01:15:44;;;;;;;2.47;1.03;;;;;;;;;;5013974;28;20535;-70
2023/10/04 01:18:13;;;;;;;4.50;1.10;;;;;;;;;;5001768;28;20448;-68
2023/10/04 01:20:40;;;;;;;3.13;1.60;;;;;;;;;;5015187;28;20448;-69
2023/10/04 01:23:11;;;;;;;2.50;0.70;;;;;;;;;;5009785;28;20441;-69
2023/10/04 01:25:39;;;;;;;2.70;0.93;;;;;;;;;;5010001;28;20475;-69
2023/10/04 01:28:12;;;;;;;8.23;1.43;;;;;;;;;;4996251;28;21003;-69
2023/10/04 01:30:40;;;;;;;3.03;1.10;;;;;;;;;;5007625;28;20535;-70
2023/10/04 01:33:10;;;;;;;3.87;1.37;;;;;;;;;;5014214;28;20925;-70
2023/10/04 01:35:37;;;;;;;2.37;0.80;;;;;;;;;;5003732;28;20552;-70
2023/10/04 01:38:07;;;;;;;3.00;0.73;;;;;;;;;;5006792;28;20451;-70
2023/10/04 01:40:38;;;;;;;2.13;0.97;;;;;;;;;;5008140;28;20440;-69
2023/10/04 01:43:14;;;;;;;2.03;0.73;;;;;;;;;;5002881;28;20859;-70
2023/10/04 01:45:44;;;;;;;3.00;1.03;;;;;;;;;;5001408;28;20447;-70
2023/10/04 01:48:14;;;;;;;2.10;0.70;;;;;;;;;;5009821;28;20458;-69
2023/10/04 01:50:43;;;;;;;2.40;0.90;;;;;;;;;;5015164;28;20534;-69
2023/10/04 01:53:11;;;;;;;3.60;1.07;;;;;;;;;;5013454;28;20502;-70
2023/10/04 01:55:40;;;;;;;2.63;1.00;;;;;;;;;;5011546;28;20514;-70
2023/10/04 01:58:09;;;;;;;3.50;0.90;;;;;;;;;;5013205;28;20952;-69
2023/10/04 02:00:37;;;;;;;2.87;1.20;;;;;;;;;;5001866;28;20444;-69
2023/10/04 02:03:09;;;;;;;2.40;0.60;;;;;;;;;;5001839;28;20436;-70
2023/10/04 02:05:40;;;;;;;2.83;0.80;;;;;;;;;;4998040;28;20469;-70
2023/10/04 02:08:09;;;;;;;2.20;0.70;;;;;;;;;;5007505;28;20548;-68
2023/10/04 02:10:36;;;;;;;3.60;1.63;;;;;;;;;;5011373;28;20440;-68
2023/10/04 02:13:07;;;;;;;1.90;0.50;;;;;;;;;;5003319;28;20444;-69
2023/10/04 02:15:36;;;;;;;2.00;0.80;;;;;;;;;;4999576;28;20993;-69
2023/10/04 02:18:05;;;;;;;3.90;1.77;;;;;;;;;;5004835;28;20444;-69
2023/10/04 02:20:33;;;;;;;2.73;1.00;;;;;;;;;;5005096;28;20531;-69
2023/10/04 02:23:02;;;;;;;2.33;0.90;;;;;;;;;;5012338;28;20514;-69
2023/10/04 02:25:30;;;;;;;3.40;1.10;;;;;;;;;;5002285;28;20552;-68
2023/10/04 02:28:11;;;;;;;2.97;1.13;;;;;;;;;;5002677;28;20448;-69
2023/10/04 02:30:40;;;;;;;4.97;1.00;;;;;;;;;;5012451;28;20813;-70
2023/10/04 02:33:13;;;;;;;2.97;1.00;;;;;;;;;;5001223;28;20564;-70
2023/10/04 02:35:44;;;;;;;4.87;0.90;;;;;;;;;;4993723;28;20441;-70
2023/10/04 02:38:16;;;;;;;2.57;1.10;;;;;;;;;;5000791;28;20938;-70
2023/10/04 02:40:48;;;;;;;4.30;1.50;;;;;;;;;;5009981;28;20441;-69
2023/10/04 02:43:16;;;;;;;4.30;1.33;;;;;;;;;;5005025;28;20474;-69
2023/10/04 02:45:47;;;;;;;3.80;1.10;;;;;;;;;;5000687;28;20949;-69
2023/10/04 02:48:14;;;;;;;2.60;0.93;;;;;;;;;;5015025;28;20996;-69
2023/10/04 02:50:44;;;;;;;2.50;0.80;;;;;;;;;;5000507;28;20440;-69
2023/10/04 02:53:16;;;;;;;3.90;1.30;;;;;;;;;;5012354;28;20487;-69
2023/10/04 02:55:46;;;;;;;5.70;1.10;;;;;;;;;;5010961;28;20464;-69
2023/10/04 02:58:16;;;;;;;2.90;0.93;;;;;;;;;;4999455;28;20453;-70
2023/10/04 03:00:46;;;;;;;2.33;0.90;;;;;;;;;;5008003;28;20462;-69
2023/10/04 03:03:13;;;;;;;2.77;1.00;;;;;;;;;;5006758;28;20954;-69
2023/10/04 03:05:41;;;;;;;4.00;1.23;;;;;;;;;;5001814;28;20496;-69
2023/10/04 03:08:09;;;;;;;3.90;1.23;;;;;;;;;;5006693;28;20445;-69
2023/10/04 03:10:37;;;;;;;2.80;1.00;;;;;;;;;;5003982;28;20539;-69
2023/10/04 03:13:11;;;;;;;3.33;1.50;;;;;;;;;;5008720;28;20659;-70
2023/10/04 03:15:43;;;;;;;2.60;1.03;;;;;;;;;;5006247;28;20472;-71
2023/10/04 03:18:17;;;;;;;3.77;1.20;;;;;;;;;;5010810;28;20456;-69
2023/10/04 03:20:54;;;;;;;2.53;0.93;;;;;;;;;;5014955;28;20436;-69
2023/10/04 03:23:23;;;;;;;3.13;0.90;;;;;;;;;;5006325;28;20444;-70
2023/10/04 03:25:51;;;;;;;2.40;0.70;;;;;;;;;;4997816;28;20440;-69
2023/10/04 03:28:20;;;;;;;2.53;0.87;;;;;;;;;;5012847;28;20448;-69
2023/10/04 03:30:47;;;;;;;3.80;1.50;;;;;;;;;;4999321;28;20899;-69
2023/10/04 03:33:16;;;;;;;2.57;0.87;;;;;;;;;;5012822;28;20475;-69
2023/10/04 03:35:44;;;;;;;2.33;0.90;;;;;;;;;;5007185;28;20476;-70
2023/10/04 03:38:11;;;;;;;2.20;0.90;;;;;;;;;;5001782;28;20519;-69
2023/10/04 03:40:39;;;;;;;2.73;0.80;;;;;;;;;;4999087;28;20927;-69
2023/10/04 03:43:07;;;;;;;3.10;0.80;;;;;;;;;;5003077;28;20496;-70
2023/10/04 03:45:34;;;;;;;5.27;1.10;;;;;;;;;;5008133;28;20464;-69
2023/10/04 03:48:02;;;;;;;4.60;1.33;;;;;;;;;;5002778;28;20443;-69
2023/10/04 03:50:36;;;;;;;2.20;0.80;;;;;;;;;;5008956;28;20523;-70
2023/10/04 03:53:03;;;;;;;2.23;0.90;;;;;;;;;;5008508;28;20484;-69
2023/10/04 03:55:31;;;;;;;2.77;1.00;;;;;;;;;;5003876;28;20464;-69
2023/10/04 03:58:04;;;;;;;2.63;1.00;;;;;;;;;;5004204;28;20965;-69
2023/10/04 04:00:32;;;;;;;2.30;0.90;;;;;;;;;;5006624;28;20449;-70
2023/10/04 04:02:59;;;;;;;3.10;1.40;;;;;;;;;;5005395;28;20452;-69
2023/10/04 04:05:29;;;;;;;3.60;1.30;;;;;;;;;;5003896;28;20567;-69
2023/10/04 04:07:58;;;;;;;3.93;1.00;;;;;;;;;;5006305;28;20460;-69
2023/10/04 04:10:26;;;;;;;2.20;0.80;;;;;;;;;;5001612;28;20452;-70
2023/10/04 04:12:55;;;;;;;4.37;1.63;;;;;;;;;;4998671;28;20484;-69
2023/10/04 04:15:25;;;;;;;2.80;1.00;;;;;;;;;;5007118;28;20474;-69
2023/10/04 04:17:54;;;;;;;2.63;0.90;;;;;;;;;;4999531;28;20459;-70
2023/10/04 04:20:23;;;;;;;3.53;1.20;;;;;;;;;;5003713;28;20456;-69
2023/10/04 04:22:53;;;;;;;2.30;0.70;;;;;;;;;;4997439;28;20957;-69
2023/10/04 04:25:28;;;;;;;7.43;1.50;;;;;;;;;;5003144;28;20812;-69
2023/10/04 04:27:58;;;;;;;6.53;1.70;;;;;;;;;;5008733;28;20456;-69
2023/10/04 04:30:31;;;;;;;3.30;1.23;;;;;;;;;;4997145;28;20440;-69
2023/10/04 04:33:07;;;;;;;3.93;1.70;;;;;;;;;;5009825;28;20487;-69
2023/10/04 04:35:47;;;;;;;2.10;0.70;;;;;;;;;;5011723;28;20467;-69
2023/10/04 04:38:19;;;;;;;8.37;2.30;;;;;;;;;;5002723;28;20443;-68
2023/10/04 04:40:48;;;;;;;3.60;0.90;;;;;;;;;;4999963;28;20448;-68
2023/10/04 04:43:26;;;;;;;3.30;1.40;;;;;;;;;;5011501;28;20436;-68
2023/10/04 04:45:54;;;;;;;3.60;1.70;;;;;;;;;;5009321;28;20544;-69
2023/10/04 04:48:23;;;;;;;2.70;1.03;;;;;;;;;;5008314;28;20462;-70
2023/10/04 04:50:51;;;;;;;3.27;1.27;;;;;;;;;;5003352;28;21012;-69
2023/10/04 04:53:21;;;;;;;2.87;0.93;;;;;;;;;;5007270;28;20497;-69
2023/10/04 04:55:51;;;;;;;4.53;1.40;;;;;;;;;;5008481;28;20453;-69
2023/10/04 04:58:19;;;;;;;2.33;1.17;;;;;;;;;;5010140;28;20934;-69
2023/10/04 05:00:50;;;;;;;2.63;0.90;;;;;;;;;;5005432;28;20971;-69
2023/10/04 05:03:18;;;;;;;2.50;0.77;;;;;;;;;;5009022;28;20969;-69
2023/10/04 05:05:49;;;;;;;4.23;1.23;;;;;;;;;;5006121;28;20537;-69
2023/10/04 05:08:17;;;;;;;4.80;1.40;;;;;;;;;;5008240;28;20452;-69
2023/10/04 05:10:44;;;;;;;2.10;0.70;;;;;;;;;;5005820;28;20479;-69
2023/10/04 05:13:13;;;;;;;5.43;1.63;;;;;;;;;;5011610;28;20492;-69
2023/10/04 05:15:46;;;;;;;5.20;1.60;;;;;;;;;;4999592;28;20445;-70
2023/10/04 05:18:16;;;;;;;3.77;1.30;;;;;;;;;;5014240;28;20480;-69
2023/10/04 05:20:43;;;;;;;5.47;2.20;;;;;;;;;;5008407;28;20984;-69
2023/10/04 05:23:11;;;;;;;4.90;1.60;;;;;;;;;;5004069;28;20446;-69
2023/10/04 05:25:38;;;;;;;5.70;1.20;;;;;;;;;;5014269;28;20468;-70
2023/10/04 05:28:06;;;;;;;2.70;1.23;;;;;;;;;;5003255;28;20452;-70
2023/10/04 05:30:37;;;;;;;3.90;1.20;;;;;;;;;;5004504;28;20429;-70
2023/10/04 05:33:04;;;;;;;4.10;0.80;;;;;;;;;;4997964;28;20531;-70
2023/10/04 05:35:32;;;;;;;2.60;1.10;;;;;;;;;;5010301;28;20460;-71
2023/10/04 05:37:59;;;;;;;3.43;1.30;;;;;;;;;;5000811;28;20472;-71
2023/10/04 05:40:27;;;;;;;2.47;1.17;;;;;;;;;;5012076;28;20452;-70
2023/10/04 05:42:56;;;;;;;4.10;1.47;;;;;;;;;;5014532;28;20445;-70
2023/10/04 05:45:25;;;;;;;2.30;0.87;;;;;;;;;;5004609;28;20894;-71
2023/10/04 05:47:53;;;;;;;2.97;0.87;;;;;;;;;;5015253;28;20441;-71
2023/10/04 05:50:21;;;;;;;3.43;1.40;;;;;;;;;;5002101;28;20528;-69
2023/10/04 05:52:49;;;;;;;3.20;1.50;;;;;;;;;;5007326;28;20572;-70
2023/10/04 05:55:17;;;;;;;2.33;0.97;;;;;;;;;;5006551;28;20538;-71
2023/10/04 05:57:50;;;;;;;2.60;1.67;;;;;;;;;;5013634;28;20798;-70
2023/10/04 06:00:26;;;;;;;2.77;1.10;;;;;;;;;;5001606;28;20463;-70
2023/10/04 06:02:55;;;;;;;3.40;1.60;;;;;;;;;;5007110;28;20445;-70
2023/10/04 06:05:23;;;;;;;3.77;1.50;;;;;;;;;;5008945;28;20467;-71
2023/10/04 06:07:50;;;;;;;3.20;0.97;;;;;;;;;;5008606;28;20455;-68
2023/10/04 06:10:18;;;;;;;3.13;1.23;;;;;;;;;;5002037;28;20535;-68
2023/10/04 06:12:46;;;;;;;3.70;1.40;;;;;;;;;;5016362;28;21001;-68
2023/10/04 06:15:16;;;;;;;4.27;1.70;;;;;;;;;;5011897;28;20529;-70
2023/10/04 06:17:43;;;;;;;4.20;1.37;;;;;;;;;;5030208;28;20563;-68
2023/10/04 06:20:28;;;;;;;5.10;1.47;;;;;;;;;;5021066;28;20479;-69
2023/10/04 06:22:56;;;;;;;3.43;1.20;;;;;;;;;;5032746;28;20428;-69
2023/10/04 06:25:23;;;;;;;2.93;0.97;;;;;;;;;;5034018;28;20448;-70
2023/10/04 06:27:51;;;;;;;2.97;1.03;;;;;;;;;;5033969;28;20451;-69
2023/10/04 06:30:22;;;;;;;2.80;1.00;;;;;;;;;;5026531;28;20442;-68
2023/10/04 06:32:51;;;;;;;3.47;1.40;;;;;;;;;;5037038;28;20515;-67
2023/10/04 06:35:23;;;;;;;5.00;2.60;;;;;;;;;;5035602;28;20459;-70
2023/10/04 06:37:51;;;;;;;8.30;1.07;;;;;;;;;;5019136;28;20433;-68
2023/10/04 06:40:19;;;;;;;2.83;1.10;;;;;;;;;;5036404;28;20441;-69
2023/10/04 06:42:48;;;;;;;3.63;1.03;;;;;;;;;;5030876;28;20433;-69
2023/10/04 06:45:16;;;;;;;4.30;1.23;;;;;;;;;;5020350;28;20461;-69
2023/10/04 06:47:45;;;;;;;3.30;1.00;;;;;;;;;;5036567;28;20436;-69
2023/10/04 06:50:14;;;;;;;3.67;1.10;;;;;;;;;;5023963;28;20502;-67
2023/10/04 06:52:43;;;;;;;3.60;1.27;;;;;;;;;;5036803;28;20514;-68
2023/10/04 06:55:11;;;;;;;2.80;1.43;;;;;;;;;;5029261;28;20445;-68
2023/10/04 06:57:40;;;;;;;2.00;0.73;;;;;;;;;;5034300;28;20504;-66
2023/10/04 07:00:18;;;;;;;3.10;1.37;;;;;;;;;;5024176;28;20453;-67
2023/10/04 07:02:46;;;;;;;6.53;1.40;;;;;;;;;;5037078;28;20455;-67
2023/10/04 07:05:16;;;;;;;2.53;0.80;;;;;;;;;;5025509;28;20513;-69
2023/10/04 07:07:45;;;;;;;3.03;1.70;;;;;;;;;;5028343;28;20450;-68
2023/10/04 07:10:15;;;;;;;2.20;0.90;;;;;;;;;;5034513;28;20424;-66
2023/10/04 07:12:43;;;;;;;4.83;1.40;;;;;;;;;;5024990;28;20488;-67
2023/10/04 07:15:11;;;;;;;5.33;1.30;;;;;;;;;;5032534;28;20455;-66
2023/10/04 07:17:39;;;;;;;3.80;1.33;;;;;;;;;;5025122;28;20445;-66
2023/10/04 07:20:07;;;;;;;2.73;1.00;;;;;;;;;;5030682;28;20444;-67
2023/10/04 07:22:36;;;;;;;2.60;0.70;;;;;;;;;;5029742;28;20425;-67
2023/10/04 07:25:07;;;;;;;2.87;1.57;;;;;;;;;;5018564;28;20692;-68
2023/10/04 07:27:34;;;;;;;2.90;0.93;;;;;;;;;;5030490;28;20436;-68
2023/10/04 07:30:04;;;;;;;3.77;1.30;;;;;;;;;;5032730;28;20431;-69
2023/10/04 07:32:33;;;;;;;2.93;1.27;;;;;;;;;;5022296;28;20520;-69
2023/10/04 07:35:01;;;;;;;3.40;1.00;;;;;;;;;;5025702;28;20487;-69
2023/10/04 07:37:28;;;;;;;4.63;1.03;;;;;;;;;;5022982;28;20444;-68
2023/10/04 07:39:55;;;;;;;1.97;1.03;;;;;;;;;;5036071;28;20435;-69
2023/10/04 07:42:26;;;;;;;2.17;0.97;;;;;;;;;;5033290;28;20440;-68
2023/10/04 07:44:53;;;;;;;1.97;0.60;;;;;;;;;;5020595;28;20449;-68
2023/10/04 07:47:20;;;;;;;1.90;0.77;;;;;;;;;;5019975;28;20436;-67
2023/10/04 07:49:47;;;;;;;2.63;0.87;;;;;;;;;;5024874;28;20448;-68
2023/10/04 07:52:14;;;;;;;3.20;1.17;;;;;;;;;;5019679;28;20452;-69
2023/10/04 07:54:41;;;;;;;2.00;0.63;;;;;;;;;;5029240;28;20484;-69
2023/10/04 07:57:10;;;;;;;2.60;0.80;;;;;;;;;;5026248;28;20445;-69
2023/10/04 07:59:41;;;;;;;2.10;0.70;;;;;;;;;;5021440;28;20447;-67
2023/10/04 08:02:11;;;;;;;1.60;0.60;;;;;;;;;;5016565;28;20543;-68
2023/10/04 08:04:39;;;;;;;2.07;0.87;;;;;;;;;;5026607;28;20460;-68
2023/10/04 08:07:12;;;;;;;1.67;0.60;;;;;;;;;;5019982;28;20542;-70
2023/10/04 08:09:39;;;;;;;2.90;1.07;;;;;;;;;;5022145;28;20445;-67
2023/10/04 08:12:07;;;;;;;2.90;0.80;;;;;;;;;;5024874;28;20449;-70
2023/10/04 08:14:35;;;;;;;2.10;0.90;;;;;;;;;;5022771;28;20480;-70
2023/10/04 08:17:04;;;;;;;1.77;0.73;;;;;;;;;;5025292;28;20463;-70
2023/10/04 08:19:31;;;;;;;3.43;1.07;;;;;;;;;;5018321;28;20468;-68
2023/10/04 08:21:59;;;;;;;1.90;0.80;;;;;;;;;;5031985;28;20448;-70
2023/10/04 08:24:26;;;;;;;1.93;0.80;;;;;;;;;;5032188;28;20508;-70
2023/10/04 08:26:55;;;;;;;1.73;0.60;;;;;;;;;;5028063;28;20444;-68
2023/10/04 08:29:23;;;;;;;1.50;0.50;;;;;;;;;;5023502;28;20444;-70
2023/10/04 08:31:54;;;;;;;2.57;0.67;;;;;;;;;;5030362;28;20425;-69
2023/10/04 08:34:24;;;;;;;1.70;0.70;;;;;;;;;;5021828;28;20492;-67
2023/10/04 08:36:51;;;;;;;2.60;0.80;;;;;;;;;;5031686;28;20459;-69
2023/10/04 08:39:20;;;;;;;2.57;0.70;;;;;;;;;;5025794;28;20459;-67
2023/10/04 08:41:48;;;;;;;2.40;0.80;;;;;;;;;;5039320;28;20694;-67
2023/10/04 08:44:15;;;;;;;11.20;1.20;;;;;;;;;;5032601;28;20532;-68
2023/10/04 08:46:44;;;;;;;1.60;0.60;;;;;;;;;;5026127;28;20436;-68
2023/10/04 08:49:12;;;;;;;1.87;0.70;;;;;;;;;;5025761;28;20432;-68
2023/10/04 08:51:48;;;;;;;5.03;1.10;;;;;;;;;;5039152;28;20470;-69
2023/10/04 08:54:18;;;;;;;4.10;0.90;;;;;;;;;;5024811;28;20488;-67
2023/10/04 08:56:51;;;;;;;3.17;0.83;;;;;;;;;;5033074;28;20432;-66
2023/10/04 08:59:20;;;;;;;2.03;1.10;;;;;;;;;;5030001;28;20436;-68
2023/10/04 09:01:48;;;;;;;4.77;1.00;;;;;;;;;;5026521;28;20447;-68
2023/10/04 09:04:15;;;;;;;2.13;0.90;;;;;;;;;;5033401;28;20472;-66
2023/10/04 09:06:43;;;;;;;2.43;0.90;;;;;;;;;;5033343;28;20514;-67
2023/10/04 09:09:15;;;;;;;2.30;0.77;;;;;;;;;;5030550;28;20462;-70
2023/10/04 09:11:42;;;;;;;3.10;1.27;;;;;;;;;;5027177;28;20429;-67
2023/10/04 09:14:10;;;;;;;1.70;0.80;;;;;;;;;;5031129;28;20476;-66
2023/10/04 09:16:39;;;;;;;3.00;0.70;;;;;;;;;;5025731;28;20460;-68
2023/10/04 09:19:08;;;;;;;1.77;0.63;;;;;;;;;;5039343;28;20459;-68
2023/10/04 09:21:37;;;;;;;2.40;0.73;;;;;;;;;;5025839;28;20442;-67
2023/10/04 09:24:08;;;;;;;3.70;1.17;;;;;;;;;;5038573;28;20464;-68
2023/10/04 09:26:37;;;;;;;1.90;0.80;;;;;;;;;;5020755;28;20437;-69
2023/10/04 09:29:06;;;;;;;2.83;1.00;;;;;;;;;;5032182;28;20506;-68
2023/10/04 09:31:47;;;;;;;2.80;0.83;;;;;;;;;;5027311;28;20476;-69
2023/10/04 09:34:14;;;;;;;2.23;0.90;;;;;;;;;;5023876;28;20511;-69
2023/10/04 09:36:42;;;;;;;8.10;1.60;;;;;;;;;;5038854;28;20427;-70
2023/10/04 09:39:13;;;;;;;1.93;0.83;;;;;;;;;;5033772;28;20511;-70
2023/10/04 09:41:43;;;;;;;2.80;0.83;;;;;;;;;;5029088;28;20503;-68
2023/10/04 09:44:23;;;;;;;3.40;0.83;;;;;;;;;;5024938;28;20460;-69
2023/10/04 09:46:54;;;;;;;3.33;1.17;;;;;;;;;;5018390;28;20448;-69
2023/10/04 09:49:21;;;;;;;2.47;1.07;;;;;;;;;;5025473;28;20440;-69
2023/10/04 09:51:48;;;;;;;2.80;0.83;;;;;;;;;;5024829;28;20507;-67
2023/10/04 09:54:17;;;;;;;2.10;0.97;;;;;;;;;;5030065;28;20479;-69
2023/10/04 09:56:46;;;;;;;4.13;0.90;;;;;;;;;;5032882;28;20432;-68
2023/10/04 09:59:17;;;;;;;2.23;0.93;;;;;;;;;;5026379;28;20443;-68
2023/10/04 10:01:44;;;;;;;2.67;0.77;;;;;;;;;;5024774;28;20472;-68
2023/10/04 10:04:16;;;;;;;1.73;0.80;;;;;;;;;;5026753;28;20444;-67
2023/10/04 10:06:47;;;;;;;2.23;0.83;;;;;;;;;;5025678;28;20441;-67
2023/10/04 10:09:19;;;;;;;2.17;0.60;;;;;;;;;;5027734;28;20452;-68
2023/10/04 10:11:52;;;;;;;3.33;1.30;;;;;;;;;;5033376;28;20908;-69
2023/10/04 10:14:22;;;;;;;3.30;1.60;;;;;;;;;;5028820;28;20559;-67
2023/10/04 10:16:54;;;;;;;2.20;0.80;;;;;;;;;;5023348;28;20429;-69
2023/10/04 10:19:21;;;;;;;3.13;1.30;;;;;;;;;;5031659;28;20451;-70
2023/10/04 10:22:05;;;;;;;3.47;0.90;;;;;;;;;;5031026;28;20445;-68
2023/10/04 10:24:32;;;;;;;2.23;0.90;;;;;;;;;;5032877;28;20448;-70
2023/10/04 10:27:05;;;;;;;3.10;1.30;;;;;;;;;;5036797;28;20428;-68
2023/10/04 10:29:33;;;;;;;2.50;1.10;;;;;;;;;;5033092;28;20453;-69
2023/10/04 10:32:04;;;;;;;1.60;0.80;;;;;;;;;;5028351;28;20454;-69
2023/10/04 10:34:31;;;;;;;1.70;1.00;;;;;;;;;;5032460;28;20468;-68
2023/10/04 10:37:10;;;;;;;2.13;1.17;;;;;;;;;;5034565;28;20440;-67
2023/10/04 10:39:47;;;;;;;3.43;1.00;;;;;;;;;;5024337;28;20467;-67
2023/10/04 10:42:15;;;;;;;2.20;0.83;;;;;;;;;;5023624;28;20455;-67
2023/10/04 10:44:43;;;;;;;7.50;1.57;;;;;;;;;;5030146;28;20445;-68
2023/10/04 10:47:19;;;;;;;2.63;1.10;;;;;;;;;;5029760;28;20895;-68
2023/10/04 10:49:50;;;;;;;5.97;1.00;;;;;;;;;;5028409;28;20432;-68
2023/10/04 10:52:24;;;;;;;2.13;0.80;;;;;;;;;;5032172;28;20439;-66
2023/10/04 10:54:52;;;;;;;2.47;1.00;;;;;;;;;;5033337;28;20480;-67
2023/10/04 10:57:21;;;;;;;1.90;0.70;;;;;;;;;;5030934;28;20511;-68
2023/10/04 10:59:57;;;;;;;1.73;0.80;;;;;;;;;;5023655;28;20512;-69
2023/10/04 11:02:25;;;;;;;1.93;0.90;;;;;;;;;;5028751;28;20444;-67
2023/10/04 11:04:53;;;;;;;1.30;0.50;;;;;;;;;;5031186;28;20449;-67
2023/10/04 11:07:23;;;;;;;2.23;0.70;;;;;;;;;;5034141;28;20424;-69
2023/10/04 11:09:51;;;;;;;4.33;1.93;;;;;;;;;;5023257;28;20476;-70
2023/10/04 11:12:23;;;;;;;3.00;1.30;;;;;;;;;;5026725;28;20445;-69
2023/10/04 11:14:51;;;;;;;2.80;0.90;;;;;;;;;;5031431;28;20456;-69
2023/10/04 11:17:20;;;;;;;1.77;0.70;;;;;;;;;;5035296;28;20449;-68
2023/10/04 11:19:50;;;;;;;2.43;1.07;;;;;;;;;;5028011;28;20452;-69
2023/10/04 11:22:19;;;;;;;2.43;1.00;;;;;;;;;;5034114;28;20440;-66
2023/10/04 11:24:46;;;;;;;2.97;0.80;;;;;;;;;;5033565;28;20477;-68
2023/10/04 11:27:18;;;;;;;1.70;0.80;;;;;;;;;;5017389;28;20448;-70
2023/10/04 11:29:49;;;;;;;2.30;0.90;;;;;;;;;;5029206;28;20437;-69
2023/10/04 11:32:18;;;;;;;2.00;1.00;;;;;;;;;;5030930;28;20451;-68
2023/10/04 11:34:46;;;;;;;2.20;0.90;;;;;;;;;;5029785;28;20489;-68
2023/10/04 11:37:14;;;;;;;1.70;0.70;;;;;;;;;;5022842;28;20445;-68
2023/10/04 11:39:42;;;;;;;5.60;1.50;;;;;;;;;;5026802;28;20472;-69
2023/10/04 11:42:17;;;;;;;2.43;0.90;;;;;;;;;;5011658;28;20448;-69
2023/10/04 11:44:45;;;;;;;2.53;0.60;;;;;;;;;;5009253;28;20487;-69
2023/10/04 11:47:15;;;;;;;2.30;0.90;;;;;;;;;;5003510;28;20451;-69
2023/10/04 11:49:55;;;;;;;2.83;0.77;;;;;;;;;;5014321;28;20455;-69
2023/10/04 11:52:23;;;;;;;2.90;1.10;;;;;;;;;;5000676;28;20531;-71
2023/10/04 11:54:53;;;;;;;5.90;1.80;;;;;;;;;;5012057;28;20935;-69
2023/10/04 11:57:24;;;;;;;3.90;1.00;;;;;;;;;;5011555;28;20606;-70
2023/10/04 11:59:52;;;;;;;2.53;0.90;;;;;;;;;;5011059;28;20821;-69
2023/10/04 12:02:22;;;;;;;2.20;0.97;;;;;;;;;;5003320;28;20488;-70
2023/10/04 12:04:49;;;;;;;1.60;0.67;;;;;;;;;;5011264;28;20467;-69
2023/10/04 12:07:16;;;;;;;2.33;1.00;;;;;;;;;;5006032;28;20444;-70
2023/10/04 12:09:45;;;;;;;3.10;0.90;;;;;;;;;;5013362;28;20463;-69
2023/10/04 12:12:16;;;;;;;2.03;0.87;;;;;;;;;;5006676;28;20436;-69
2023/10/04 12:14:44;;;;;;;1.93;0.70;;;;;;;;;;5015788;28;20484;-70
2023/10/04 12:17:11;;;;;;;4.50;1.20;;;;;;;;;;5008530;28;20939;-69
2023/10/04 12:19:40;;;;;;;2.60;1.50;;;;;;;;;;5014588;28;20555;-69
2023/10/04 12:22:11;;;;;;;1.87;0.60;;;;;;;;;;5016111;28;20491;-69
2023/10/04 12:24:40;;;;;;;2.07;0.60;;;;;;;;;;5016542;28;20549;-69
2023/10/04 12:27:08;;;;;;;3.23;1.30;;;;;;;;;;5006892;28;20456;-70
2023/10/04 12:29:36;;;;;;;2.90;1.13;;;;;;;;;;5003485;28;20483;-70
2023/10/04 12:32:05;;;;;;;2.33;1.10;;;;;;;;;;5016126;28;20501;-70
2023/10/04 12:34:32;;;;;;;2.00;0.90;;;;;;;;;;5011025;28;20891;-70
2023/10/04 12:37:01;;;;;;;1.50;0.70;;;;;;;;;;5003005;28;20503;-70
2023/10/04 12:39:28;;;;;;;4.00;1.20;;;;;;;;;;5015911;28;21101;-70
2023/10/04 12:41:59;;;;;;;3.00;1.27;;;;;;;;;;5006053;28;20456;-69
2023/10/04 12:44:26;;;;;;;1.57;0.53;;;;;;;;;;5003317;28;21064;-70
2023/10/04 12:46:54;;;;;;;1.90;0.80;;;;;;;;;;5011740;28;20459;-70
2023/10/04 12:49:22;;;;;;;3.13;0.90;;;;;;;;;;5004066;28;20507;-70
2023/10/04 12:51:49;;;;;;;3.83;0.80;;;;;;;;;;5002409;28;20864;-70
2023/10/04 12:54:23;;;;;;;2.33;1.03;;;;;;;;;;5008607;28;20467;-70
2023/10/04 12:56:51;;;;;;;1.37;0.67;;;;;;;;;;5014193;28;20439;-70
2023/10/04 12:59:20;;;;;;;1.80;0.70;;;;;;;;;;5016851;28;20459;-70
2023/10/04 13:01:47;;;;;;;1.87;0.80;;;;;;;;;;5009813;28;20460;-70
2023/10/04 13:04:14;;;;;;;2.63;0.90;;;;;;;;;;5006749;28;20468;-70
2023/10/04 13:06:41;;;;;;;1.50;0.60;;;;;;;;;;5002586;28;20444;-72
2023/10/04 13:09:15;;;;;;;1.30;0.50;;;;;;;;;;5004660;28;20453;-70
2023/10/04 13:11:44;;;;;;;1.70;0.90;;;;;;;;;;5008408;28;20441;-70
2023/10/04 13:14:11;;;;;;;1.90;0.70;;;;;;;;;;5008005;28;20499;-70
2023/10/04 13:16:38;;;;;;;1.80;0.80;;;;;;;;;;5008350;28;20444;-69
2023/10/04 13:19:05;;;;;;;2.53;1.13;;;;;;;;;;5008791;28;20848;-70
2023/10/04 13:21:32;;;;;;;3.00;0.77;;;;;;;;;;5011569;28;20902;-70
2023/10/04 13:23:59;;;;;;;2.60;0.73;;;;;;;;;;5005448;28;20990;-70
2023/10/04 13:26:26;;;;;;;4.10;1.00;;;;;;;;;;5004853;28;20941;-70
2023/10/04 13:28:56;;;;;;;2.60;1.17;;;;;;;;;;5007613;28;20565;-70
2023/10/04 13:31:23;;;;;;;5.13;0.80;;;;;;;;;;5010361;28;20444;-69
2023/10/04 13:33:50;;;;;;;2.43;1.00;;;;;;;;;;5014281;28;20460;-70
2023/10/04 13:36:18;;;;;;;1.93;0.80;;;;;;;;;;5000384;28;20485;-70
2023/10/04 13:38:47;;;;;;;4.07;1.47;;;;;;;;;;5009130;28;20506;-70
2023/10/04 13:41:15;;;;;;;2.33;1.00;;;;;;;;;;5007106;28;20449;-70
2023/10/04 13:43:45;;;;;;;5.60;0.90;;;;;;;;;;5008519;28;20464;-70
2023/10/04 13:46:14;;;;;;;2.30;0.90;;;;;;;;;;5003403;28;20436;-70
2023/10/04 13:48:41;;;;;;;1.87;0.90;;;;;;;;;;5012729;28;20829;-70
2023/10/04 13:51:10;;;;;;;2.10;1.13;;;;;;;;;;5003521;28;20494;-70
2023/10/04 13:53:37;;;;;;;1.47;0.60;;;;;;;;;;5005806;28;20472;-70
2023/10/04 13:56:05;;;;;;;3.53;1.00;;;;;;;;;;4995512;28;20555;-70
2023/10/04 13:58:32;;;;;;;3.03;1.30;;;;;;;;;;5010911;28;20444;-70
2023/10/04 14:01:04;;;;;;;2.83;0.90;;;;;;;;;;5004906;28;20445;-70
2023/10/04 14:03:35;;;;;;;5.20;2.20;;;;;;;;;;5007499;28;20916;-70
2023/10/04 14:06:06;;;;;;;2.10;0.90;;;;;;;;;;4998484;28;20444;-70
2023/10/04 14:08:34;;;;;;;1.87;0.67;;;;;;;;;;5012942;28;20459;-70
2023/10/04 14:11:03;;;;;;;2.87;0.83;;;;;;;;;;5001460;28;20441;-70
2023/10/04 14:13:30;;;;;;;1.73;0.93;;;;;;;;;;5007437;28;20452;-70
2023/10/04 14:15:58;;;;;;;2.60;0.60;;;;;;;;;;4998245;28;20501;-70
2023/10/04 14:18:25;;;;;;;1.80;0.67;;;;;;;;;;5006482;28;20813;-70
2023/10/04 14:20:56;;;;;;;4.10;0.80;;;;;;;;;;5007218;28;20447;-70
2023/10/04 14:23:25;;;;;;;2.20;1.00;;;;;;;;;;4994392;28;20437;-71
2023/10/04 14:25:54;;;;;;;2.17;0.93;;;;;;;;;;4999839;28;20887;-70
2023/10/04 14:28:22;;;;;;;2.43;0.93;;;;;;;;;;5003065;28;20473;-70
2023/10/04 14:30:49;;;;;;;1.80;0.80;;;;;;;;;;5007190;28;20448;-70
2023/10/04 14:33:17;;;;;;;1.73;0.87;;;;;;;;;;4994200;28;20441;-70
2023/10/04 14:35:44;;;;;;;1.40;0.60;;;;;;;;;;5004375;28;20481;-70
2023/10/04 14:38:15;;;;;;;2.33;1.00;;;;;;;;;;5004338;28;20453;-68
2023/10/04 14:40:43;;;;;;;1.97;1.00;;;;;;;;;;5007175;28;20450;-69
2023/10/04 14:43:12;;;;;;;1.50;0.70;;;;;;;;;;5003084;28;20448;-69
2023/10/04 14:45:39;;;;;;;3.30;1.13;;;;;;;;;;4999304;28;20539;-69
2023/10/04 14:48:07;;;;;;;2.30;1.20;;;;;;;;;;5004074;28;20547;-69
2023/10/04 14:50:34;;;;;;;2.47;1.37;;;;;;;;;;5010054;28;20827;-70
2023/10/04 14:53:02;;;;;;;3.33;1.00;;;;;;;;;;5004701;28;20450;-70
2023/10/04 14:55:31;;;;;;;2.00;0.80;;;;;;;;;;5009776;28;20484;-70